Impacts METAR Board
IDs:

KIAD - Washington/Dulles In, VA, US

Updated at: 1100 UTC 30 Oct 2020
Potential Impact None Slight Moderate High
Time 29/23Z 30/00Z 30/01Z 30/02Z 30/03Z 30/04Z 30/05Z 30/06Z 30/07Z 30/08Z 30/09Z 30/10Z 30/11Z
Temp51 51 51 51 52 51 51 51 50 49 49 49 49
Dewpt49 49 49 49 49 49 48 46 47 47 47 46 46
Altim29.56 29.58 29.60 29.62 29.63 29.62 29.60 29.61 29.65 29.64 29.62 29.69 29.73
VIS3 10 10 10 10 10 10 10 8 9 7 5 5
CIG8 12 10 12 9 22 16 15 14 16 7 8 8
CoverOVCOVCOVCOVCOVCOVCOVCOVCOVCOVCOVCOVCOVC
FltCatIFRMVFRMVFRMVFRIFRMVFRMVFRMVFRMVFRMVFRIFRIFRIFR
WX-RA BR---RA-RA-------RA-RA-RA-DZBRBR
WDir3403501034034020301035040350350350
WSpd9 9 8 8 8 7 9 9 7 6 11 13 10
WGst-- -- -- -- -- -- -- -- -- -- -- 20 19
Raw hourly METARs
KIAD 292252Z 34009KT 3SM -RA BR OVC008 11/09 A2956 RMK AO2 RAB41 SLP008 P0001 T01060094
KIAD 292352Z 35009KT 10SM SCT007 BKN012 OVC030 11/09 A2958 RMK AO2 RAE07B22E42 SLP017 P0000 60008 T01060094 10161 20106 51034
KIAD 300052Z 01008KT 10SM -RA BKN010 OVC015 11/09 A2960 RMK AO2 RAB17 SLP022 P0001 T01060094
KIAD 300152Z 34008KT 10SM -RA FEW006 OVC012 11/09 A2962 RMK AO2 RAE01B24 SLP028 P0001 T01060094
KIAD 300252Z 34008KT 10SM OVC009 11/09 A2963 RMK AO2 RAE0158B22E33 SLP032 P0000 60002 T01110094 51016
KIAD 300404Z 02007KT 10SM SCT012 OVC022 11/09 A2962 RMK AO2 T01060094
KIAD 300452Z 03009KT 10SM FEW012 BKN016 OVC023 11/09 A2960 RMK AO2 SLP021 T01060089 401720106
KIAD 300552Z 01009KT 10SM -RA BKN015 OVC023 11/08 A2961 RMK AO2 RAB47 SLP027 P0000 60002 T01060078 10111 20106 55005
KIAD 300652Z 35007KT 8SM -RA BKN014 OVC021 10/08 A2965 RMK AO2 SLP039 P0007 T01000083
KIAD 300752Z 04006KT 9SM -RA FEW008 BKN016 OVC021 09/08 A2964 RMK AO2 SLP037 P0007 T00940083
KIAD 300852Z 35011KT 7SM -DZ BKN007 OVC015 09/08 A2962 RMK AO2 RAE26DZB51 PRESFR SLP031 P0002 60016 T00940083 58008
KIAD 301000Z 35013G20KT 5SM BR BKN008 BKN012 OVC023 09/08 A2969 RMK AO2 T00940078
KIAD 301052Z 35010G19KT 5SM BR BKN008 BKN020 OVC040 09/08 A2973 RMK AO2 SLP068 T00940078



Page loaded:  11:31 UTC  |   04:31 AM Pacific  |   05:31 AM Mountain  |   06:31 AM Central  |   07:31 AM Eastern

 

ADVISORIES

FORECASTS

FORECASTS

OBSERVATIONS

USER TOOLS

ABOUT US